createdAt,value
2017-10-19T00:00:16.748Z,13.19
2017-10-19T00:01:18.702Z,13.22
2017-10-19T00:02:32.852Z,13.19
2017-10-19T00:03:34.736Z,13.08
2017-10-19T00:04:36.626Z,13.01
2017-10-19T00:05:38.507Z,13.07
2017-10-19T00:06:40.337Z,13.04
2017-10-19T00:07:42.160Z,12.96
2017-10-19T00:08:44.044Z,12.95
2017-10-19T00:09:45.932Z,13.00
2017-10-19T00:10:47.819Z,13.01
2017-10-19T00:12:01.970Z,13.05
2017-10-19T00:13:03.851Z,12.97
2017-10-19T00:14:05.750Z,13.01
2017-10-19T00:15:07.627Z,12.96
2017-10-19T00:16:09.451Z,12.95
2017-10-19T00:17:11.263Z,12.96
2017-10-19T00:18:13.153Z,13.05
2017-10-19T00:19:15.034Z,13.12
2017-10-19T00:20:16.918Z,13.04
2017-10-19T00:21:31.071Z,13.08
2017-10-19T00:22:32.954Z,13.04
2017-10-19T00:23:34.850Z,13.00
2017-10-19T00:24:36.736Z,12.97
2017-10-19T00:25:38.564Z,13.00
2017-10-19T00:26:40.382Z,13.03
2017-10-19T00:27:42.271Z,13.11
2017-10-19T00:28:44.154Z,13.03
2017-10-19T00:29:46.041Z,13.05
2017-10-19T00:31:00.195Z,13.08
2017-10-19T00:32:02.092Z,13.08
2017-10-19T00:33:03.975Z,13.07
2017-10-19T00:34:05.864Z,12.96
2017-10-19T00:35:07.684Z,13.00
2017-10-19T00:36:09.501Z,12.93
2017-10-19T00:37:11.390Z,12.95
2017-10-19T00:38:13.298Z,13.00
2017-10-19T00:39:15.183Z,12.86
2017-10-19T00:40:29.335Z,12.87
2017-10-19T00:41:31.218Z,12.87
2017-10-19T00:42:33.104Z,12.78
2017-10-19T00:43:34.986Z,12.85
2017-10-19T00:44:36.805Z,12.77
2017-10-19T00:45:38.624Z,12.75
2017-10-19T00:46:40.510Z,12.75
2017-10-19T00:47:42.395Z,12.72
2017-10-19T00:48:44.285Z,12.75
2017-10-19T00:49:58.485Z,12.78
2017-10-19T00:51:00.366Z,12.75
2017-10-19T00:52:02.253Z,12.65
2017-10-19T00:53:04.136Z,12.70
2017-10-19T00:54:05.955Z,12.68
2017-10-19T00:55:07.772Z,12.60
2017-10-19T00:56:09.657Z,12.65
2017-10-19T00:57:11.540Z,12.62
2017-10-19T00:58:13.426Z,12.59
2017-10-19T00:59:27.578Z,12.62
2017-10-19T01:00:29.461Z,12.54
2017-10-19T01:01:31.354Z,12.54
2017-10-19T01:02:33.239Z,12.42
2017-10-19T01:03:35.060Z,12.42
2017-10-19T01:04:36.883Z,12.32
2017-10-19T01:05:38.767Z,12.35
2017-10-19T01:06:40.663Z,12.28
2017-10-19T01:07:42.550Z,12.32
2017-10-19T01:08:56.762Z,12.23
2017-10-19T01:09:58.652Z,12.19
2017-10-19T01:11:00.535Z,12.23
2017-10-19T01:12:02.418Z,12.23
2017-10-19T01:13:04.236Z,12.12
2017-10-19T01:14:06.054Z,12.16
2017-10-19T01:15:07.939Z,12.09
2017-10-19T01:16:09.833Z,12.13
2017-10-19T01:17:11.718Z,12.19
2017-10-19T01:18:25.921Z,12.10
2017-10-19T01:19:27.799Z,12.13
2017-10-19T01:20:29.692Z,12.20
2017-10-19T01:21:31.573Z,12.09
2017-10-19T01:22:33.402Z,12.12
2017-10-19T01:23:35.221Z,12.07
2017-10-19T01:24:37.104Z,12.09
2017-10-19T01:25:38.987Z,12.12
2017-10-19T01:26:40.868Z,12.20
2017-10-19T01:27:55.017Z,12.17
2017-10-19T01:28:56.897Z,12.16
2017-10-19T01:29:58.789Z,12.14
2017-10-19T01:31:00.674Z,12.12
2017-10-19T01:32:02.491Z,12.13
2017-10-19T01:33:04.304Z,12.20
2017-10-19T01:34:06.189Z,12.12
2017-10-19T01:35:08.074Z,12.21
2017-10-19T01:36:09.955Z,12.20
2017-10-19T01:37:24.088Z,12.20
2017-10-19T01:38:25.973Z,12.05
2017-10-19T01:39:27.852Z,12.13
2017-10-19T01:40:29.740Z,12.10
2017-10-19T01:41:31.558Z,12.23
2017-10-19T01:42:33.370Z,12.20
2017-10-19T01:43:35.253Z,12.17
2017-10-19T01:44:37.138Z,12.13
2017-10-19T01:45:39.021Z,12.07
2017-10-19T01:46:53.169Z,12.10
2017-10-19T01:47:55.052Z,12.09
2017-10-19T01:48:56.941Z,12.09
2017-10-19T01:49:58.825Z,12.19
2017-10-19T01:51:00.641Z,12.14
2017-10-19T01:52:02.467Z,12.14
2017-10-19T01:53:04.347Z,12.10
2017-10-19T01:54:06.232Z,12.12
2017-10-19T01:55:08.115Z,11.95
2017-10-19T01:56:22.264Z,11.95
2017-10-19T01:57:24.159Z,12.02
2017-10-19T01:58:26.050Z,11.91
2017-10-19T01:59:27.934Z,11.90
2017-10-19T02:00:29.754Z,11.98
2017-10-19T02:01:31.569Z,11.94
2017-10-19T02:02:33.452Z,11.90
2017-10-19T02:03:35.337Z,11.90
2017-10-19T02:04:37.224Z,11.95
2017-10-19T02:05:51.372Z,11.88
2017-10-19T02:06:53.254Z,11.85
2017-10-19T02:07:55.145Z,11.94
2017-10-19T02:08:57.030Z,11.90
2017-10-19T02:09:58.859Z,11.76
2017-10-19T02:11:00.686Z,11.80
2017-10-19T02:12:02.569Z,11.85
2017-10-19T02:13:04.449Z,11.80
2017-10-19T02:14:06.331Z,11.72
2017-10-19T02:15:20.479Z,11.83
2017-10-19T02:16:22.361Z,11.78
2017-10-19T02:17:24.243Z,11.73
2017-10-19T02:18:26.138Z,11.64
2017-10-19T02:19:27.955Z,11.73
2017-10-19T02:20:29.768Z,11.57
2017-10-19T02:21:31.650Z,11.60
2017-10-19T02:22:33.531Z,11.64
2017-10-19T02:23:35.415Z,11.64
2017-10-19T02:24:49.563Z,11.52
2017-10-19T02:25:51.458Z,11.52
2017-10-19T02:26:53.337Z,11.49
2017-10-19T02:27:55.220Z,11.46
2017-10-19T02:28:57.040Z,11.51
2017-10-19T02:29:58.850Z,11.47
2017-10-19T02:31:00.733Z,11.55
2017-10-19T02:32:02.618Z,11.54
2017-10-19T02:33:04.499Z,11.58
2017-10-19T02:34:18.649Z,11.44
2017-10-19T02:35:20.529Z,11.57
2017-10-19T02:36:22.411Z,11.42
2017-10-19T02:37:24.304Z,11.49
2017-10-19T02:38:26.134Z,11.61
2017-10-19T02:39:27.951Z,11.51
2017-10-19T02:40:29.832Z,11.54
2017-10-19T02:41:31.718Z,11.55
2017-10-19T02:42:33.600Z,11.60
2017-10-19T02:43:48.027Z,11.54
2017-10-19T02:44:49.876Z,11.43
2017-10-19T02:45:51.756Z,11.42
2017-10-19T02:46:53.654Z,11.42
2017-10-19T02:47:55.471Z,11.44
2017-10-19T02:48:57.286Z,11.43
2017-10-19T02:49:59.176Z,11.49
2017-10-19T02:51:01.053Z,11.57
2017-10-19T02:52:02.938Z,11.62
2017-10-19T02:53:17.087Z,11.60
2017-10-19T02:54:18.971Z,11.55
2017-10-19T02:55:20.849Z,11.55
2017-10-19T02:56:22.742Z,11.47
2017-10-19T02:57:24.557Z,11.60
2017-10-19T02:58:26.382Z,11.61
2017-10-19T02:59:28.264Z,11.54
2017-10-19T03:00:30.146Z,11.61
2017-10-19T03:01:32.030Z,11.52
2017-10-19T03:02:46.179Z,11.60
2017-10-19T03:03:48.075Z,11.58
2017-10-19T03:04:49.954Z,11.47
2017-10-19T03:05:51.838Z,11.58
2017-10-19T03:06:53.655Z,11.46
2017-10-19T03:07:55.479Z,11.54
2017-10-19T03:08:57.373Z,11.55
2017-10-19T03:09:59.254Z,11.49
2017-10-19T03:11:01.145Z,11.49
2017-10-19T03:12:15.295Z,11.57
2017-10-19T03:13:17.192Z,11.52
2017-10-19T03:14:19.070Z,11.49
2017-10-19T03:15:20.954Z,11.44
2017-10-19T03:16:22.774Z,11.40
2017-10-19T03:17:24.588Z,11.49
2017-10-19T03:18:26.468Z,11.46
2017-10-19T03:19:28.351Z,11.52
2017-10-19T03:20:30.231Z,11.51
2017-10-19T03:21:44.381Z,11.44
2017-10-19T03:22:46.263Z,11.39
2017-10-19T03:23:48.153Z,11.37
2017-10-19T03:24:50.054Z,11.39
2017-10-19T03:25:51.852Z,11.35
2017-10-19T03:26:53.676Z,11.32
2017-10-19T03:27:55.569Z,11.32
2017-10-19T03:28:57.452Z,11.29
2017-10-19T03:29:59.333Z,11.27
2017-10-19T03:31:13.495Z,11.39
2017-10-19T03:32:15.375Z,11.27
2017-10-19T03:33:17.264Z,11.27
2017-10-19T03:34:19.144Z,11.27
2017-10-19T03:35:20.973Z,11.37
2017-10-19T03:36:22.777Z,11.21
2017-10-19T03:37:24.660Z,11.28
2017-10-19T03:38:26.542Z,11.35
2017-10-19T03:39:28.426Z,11.33
2017-10-19T03:40:42.577Z,11.28
2017-10-19T03:41:44.455Z,11.32
2017-10-19T03:42:46.345Z,11.25
2017-10-19T03:43:48.228Z,11.29
2017-10-19T03:44:50.044Z,11.29
2017-10-19T03:45:51.856Z,11.28
2017-10-19T03:46:53.747Z,11.27
2017-10-19T03:47:55.626Z,11.28
2017-10-19T03:48:57.518Z,11.27
2017-10-19T03:50:11.716Z,11.29
2017-10-19T03:51:13.600Z,11.27
2017-10-19T03:52:15.479Z,11.24
2017-10-19T03:53:17.381Z,11.24
2017-10-19T03:54:19.183Z,11.29
2017-10-19T03:55:21.001Z,11.27
2017-10-19T03:56:22.881Z,11.36
2017-10-19T03:57:24.764Z,11.25
2017-10-19T03:58:26.645Z,11.21
2017-10-19T03:59:40.794Z,11.21
2017-10-19T04:00:42.675Z,11.24
2017-10-19T04:01:44.566Z,11.29
2017-10-19T04:02:46.450Z,11.35
2017-10-19T04:03:48.264Z,11.35
2017-10-19T04:04:50.090Z,11.17
2017-10-19T04:05:51.984Z,11.25
2017-10-19T04:06:53.869Z,11.33
2017-10-19T04:07:55.751Z,11.25
2017-10-19T04:09:09.950Z,11.25
2017-10-19T04:10:11.828Z,11.27
2017-10-19T04:11:13.708Z,11.21
2017-10-19T04:12:15.587Z,11.21
2017-10-19T04:13:17.404Z,11.17
2017-10-19T04:14:19.230Z,11.19
2017-10-19T04:15:21.108Z,11.21
2017-10-19T04:16:22.988Z,11.11
2017-10-19T04:17:24.869Z,11.22
2017-10-19T04:18:39.021Z,11.22
2017-10-19T04:19:40.917Z,11.11
2017-10-19T04:20:42.803Z,11.07
2017-10-19T04:21:44.693Z,11.06
2017-10-19T04:22:46.510Z,11.14
2017-10-19T04:23:48.324Z,11.17
2017-10-19T04:24:50.204Z,11.10
2017-10-19T04:25:52.088Z,11.14
2017-10-19T04:26:53.967Z,11.09
2017-10-19T04:28:08.118Z,11.07
2017-10-19T04:29:09.998Z,11.14
2017-10-19T04:30:11.879Z,11.10
2017-10-19T04:31:13.764Z,11.14
2017-10-19T04:32:15.580Z,11.11
2017-10-19T04:33:17.394Z,11.09
2017-10-19T04:34:19.286Z,11.04
2017-10-19T04:35:21.169Z,11.11
2017-10-19T04:36:23.053Z,11.14
2017-10-19T04:37:37.202Z,11.11
2017-10-19T04:38:39.085Z,11.10
2017-10-19T04:39:40.965Z,11.07
2017-10-19T04:40:42.852Z,11.04
2017-10-19T04:41:44.698Z,11.10
2017-10-19T04:42:46.503Z,11.09
2017-10-19T04:43:48.397Z,11.03
2017-10-19T04:44:50.289Z,10.99
2017-10-19T04:45:52.171Z,11.06
2017-10-19T04:47:06.321Z,11.09
2017-10-19T04:48:08.202Z,11.04
2017-10-19T04:49:10.086Z,11.06
2017-10-19T04:50:11.967Z,11.02
2017-10-19T04:51:13.785Z,11.07
2017-10-19T04:52:15.601Z,11.00
2017-10-19T04:53:17.489Z,11.04
2017-10-19T04:54:19.372Z,10.97
2017-10-19T04:55:21.254Z,10.99
2017-10-19T04:56:35.404Z,11.10
2017-10-19T04:57:37.283Z,11.02
2017-10-19T04:58:39.174Z,11.07
2017-10-19T04:59:41.057Z,11.03
2017-10-19T05:00:42.884Z,11.00
2017-10-19T05:01:44.698Z,10.94
2017-10-19T05:02:46.592Z,10.99
2017-10-19T05:03:48.473Z,11.02
2017-10-19T05:04:50.355Z,11.09
2017-10-19T05:06:04.505Z,10.96
2017-10-19T05:07:06.387Z,11.02
2017-10-19T05:08:08.269Z,10.92
2017-10-19T05:09:10.150Z,10.91
2017-10-19T05:10:11.971Z,10.89
2017-10-19T05:11:13.785Z,10.84
2017-10-19T05:12:15.668Z,10.84
2017-10-19T05:13:17.550Z,10.78
2017-10-19T05:14:19.435Z,10.76
2017-10-19T05:15:33.635Z,10.85
2017-10-19T05:16:35.515Z,10.81
2017-10-19T05:17:37.397Z,10.78
2017-10-19T05:18:39.277Z,10.85
2017-10-19T05:19:41.099Z,10.81
2017-10-19T05:20:42.913Z,10.76
2017-10-19T05:21:44.796Z,10.85
2017-10-19T05:22:46.679Z,10.85
2017-10-19T05:23:48.575Z,10.79
2017-10-19T05:25:02.706Z,10.85
2017-10-19T05:26:04.524Z,10.82
2017-10-19T05:27:06.349Z,10.82
2017-10-19T05:28:08.167Z,10.78
2017-10-19T05:29:10.007Z,10.88
2017-10-19T05:30:11.890Z,10.78
2017-10-19T05:31:13.783Z,10.79
2017-10-19T05:32:15.615Z,10.84
2017-10-19T05:33:17.434Z,10.84
2017-10-19T05:34:31.584Z,10.91
2017-10-19T05:35:33.480Z,10.96
2017-10-19T05:36:35.360Z,10.94
2017-10-19T05:37:37.244Z,11.02
2017-10-19T05:38:39.063Z,10.96
2017-10-19T05:39:40.890Z,10.99
2017-10-19T05:40:42.771Z,11.00
2017-10-19T05:41:44.665Z,11.00
2017-10-19T05:42:46.551Z,10.94
2017-10-19T05:44:00.703Z,11.00
2017-10-19T05:45:02.585Z,10.96
2017-10-19T05:46:04.470Z,11.03
2017-10-19T05:47:06.352Z,11.03
2017-10-19T05:48:08.173Z,11.06
2017-10-19T05:49:09.991Z,11.00
2017-10-19T05:50:11.873Z,11.07
2017-10-19T05:51:13.756Z,11.09
2017-10-19T05:52:15.642Z,11.00
2017-10-19T05:53:29.794Z,11.09
2017-10-19T05:54:31.680Z,11.06
2017-10-19T05:55:33.562Z,11.14
2017-10-19T05:56:35.448Z,11.10
2017-10-19T05:57:37.269Z,11.04
2017-10-19T05:58:39.085Z,11.15
2017-10-19T05:59:40.971Z,11.11
2017-10-19T06:00:42.889Z,11.10
2017-10-19T06:01:44.751Z,11.15
2017-10-19T06:02:58.905Z,11.14
2017-10-19T06:04:00.811Z,11.15
2017-10-19T06:05:02.692Z,11.07
2017-10-19T06:06:04.578Z,11.10
2017-10-19T06:07:06.397Z,11.11
2017-10-19T06:08:08.215Z,11.17
2017-10-19T06:09:10.102Z,11.15
2017-10-19T06:10:12.001Z,11.14
2017-10-19T06:11:13.884Z,11.14
2017-10-19T06:12:28.048Z,11.11
2017-10-19T06:13:29.933Z,11.25
2017-10-19T06:14:31.819Z,11.21
2017-10-19T06:15:33.704Z,11.15
2017-10-19T06:16:35.529Z,11.24
2017-10-19T06:17:37.347Z,11.33
2017-10-19T06:18:39.232Z,11.19
2017-10-19T06:19:41.118Z,11.36
2017-10-19T06:20:43.004Z,11.37
2017-10-19T06:21:57.156Z,11.37
2017-10-19T06:22:59.043Z,11.43
2017-10-19T06:24:00.931Z,11.37
2017-10-19T06:25:02.818Z,11.42
2017-10-19T06:26:04.638Z,11.40
2017-10-19T06:27:06.458Z,11.42
2017-10-19T06:28:08.347Z,11.47
2017-10-19T06:29:10.229Z,11.46
2017-10-19T06:30:12.115Z,11.55
2017-10-19T06:31:26.268Z,11.57
2017-10-19T06:32:28.157Z,11.57
2017-10-19T06:33:30.057Z,11.46
2017-10-19T06:34:31.951Z,11.43
2017-10-19T06:35:33.767Z,11.43
2017-10-19T06:36:35.598Z,11.43
2017-10-19T06:37:37.483Z,11.52
2017-10-19T06:38:39.373Z,11.60
2017-10-19T06:39:41.259Z,11.52
2017-10-19T06:40:55.428Z,11.61
2017-10-19T06:41:57.317Z,11.69
2017-10-19T06:42:59.216Z,11.69
2017-10-19T06:44:01.104Z,11.78
2017-10-19T06:45:02.928Z,11.60
2017-10-19T06:46:04.747Z,11.58
2017-10-19T06:47:06.637Z,11.51
2017-10-19T06:48:08.530Z,11.43
2017-10-19T06:49:10.414Z,11.49
2017-10-19T06:50:24.579Z,11.40
2017-10-19T06:51:26.465Z,11.42
2017-10-19T06:52:28.352Z,11.36
2017-10-19T06:53:30.243Z,11.44
2017-10-19T06:54:32.065Z,11.40
2017-10-19T06:55:33.890Z,11.40
2017-10-19T06:56:35.783Z,11.46
2017-10-19T06:57:37.671Z,11.51
2017-10-19T06:58:39.558Z,11.42
2017-10-19T06:59:53.721Z,11.57
2017-10-19T07:00:55.604Z,11.60
2017-10-19T07:01:57.488Z,11.64
2017-10-19T07:02:59.377Z,11.73
2017-10-19T07:04:01.202Z,11.86
2017-10-19T07:05:03.023Z,11.94
2017-10-19T07:06:04.906Z,11.98
2017-10-19T07:07:06.795Z,12.02
2017-10-19T07:08:08.683Z,12.05
2017-10-19T07:09:22.838Z,12.07
2017-10-19T07:10:24.727Z,12.12
2017-10-19T07:11:26.610Z,12.12
2017-10-19T07:12:28.499Z,12.12
2017-10-19T07:13:30.325Z,12.14
2017-10-19T07:14:32.145Z,12.02
2017-10-19T07:15:34.034Z,12.10
2017-10-19T07:16:35.928Z,12.13
2017-10-19T07:17:37.819Z,12.13
2017-10-19T07:18:52.021Z,12.29
2017-10-19T07:19:53.908Z,12.46
2017-10-19T07:20:55.802Z,12.42
2017-10-19T07:21:57.690Z,12.42
2017-10-19T07:22:59.513Z,12.45
2017-10-19T07:24:01.331Z,12.46
2017-10-19T07:25:03.230Z,12.42
2017-10-19T07:26:05.120Z,12.45
2017-10-19T07:27:07.008Z,12.49
2017-10-19T07:28:21.165Z,12.64
2017-10-19T07:29:23.052Z,12.71
2017-10-19T07:30:24.939Z,12.74
2017-10-19T07:31:26.825Z,12.75
2017-10-19T07:32:28.652Z,12.78
2017-10-19T07:33:30.473Z,12.83
2017-10-19T07:34:32.361Z,12.92
2017-10-19T07:35:34.247Z,12.90
2017-10-19T07:36:36.138Z,12.96
2017-10-19T07:37:50.294Z,12.95
2017-10-19T07:38:52.179Z,12.97
2017-10-19T07:39:54.076Z,12.97
2017-10-19T07:40:55.965Z,13.11
2017-10-19T07:41:57.803Z,13.07
2017-10-19T07:42:59.621Z,13.25
2017-10-19T07:44:01.529Z,13.25
2017-10-19T07:45:03.411Z,13.28
2017-10-19T07:46:05.294Z,13.32
2017-10-19T07:47:19.463Z,13.29
2017-10-19T07:48:21.352Z,13.29
2017-10-19T07:49:23.236Z,13.19
2017-10-19T07:50:25.130Z,13.15
2017-10-19T07:51:26.947Z,12.96
2017-10-19T07:52:28.769Z,12.87
2017-10-19T07:53:30.666Z,12.70
2017-10-19T07:54:32.552Z,12.83
2017-10-19T07:55:34.440Z,12.90
2017-10-19T07:56:48.607Z,12.77
2017-10-19T07:57:50.496Z,12.79
2017-10-19T07:58:52.379Z,12.82
2017-10-19T07:59:54.267Z,12.83
2017-10-19T08:00:56.090Z,12.82
2017-10-19T08:01:57.921Z,12.78
2017-10-19T08:02:59.807Z,12.96
2017-10-19T08:04:01.715Z,13.08
2017-10-19T08:05:03.601Z,13.19
2017-10-19T08:06:17.771Z,13.25
2017-10-19T08:07:19.654Z,13.28
2017-10-19T08:08:21.540Z,13.41
2017-10-19T08:09:23.453Z,13.39
2017-10-19T08:10:25.254Z,13.45
2017-10-19T08:11:27.075Z,13.51
2017-10-19T08:12:28.959Z,13.54
2017-10-19T08:13:30.857Z,13.41
2017-10-19T08:14:32.746Z,13.36
2017-10-19T08:15:46.903Z,13.51
2017-10-19T08:16:48.789Z,13.49
2017-10-19T08:17:50.681Z,13.33
2017-10-19T08:18:52.562Z,13.42
2017-10-19T08:19:54.388Z,13.41
2017-10-19T08:20:56.209Z,13.36
2017-10-19T08:21:58.094Z,13.26
2017-10-19T08:23:00.006Z,13.32
2017-10-19T08:24:01.880Z,13.29
2017-10-19T08:25:16.215Z,13.30
2017-10-19T08:26:18.276Z,13.23
2017-10-19T08:27:20.230Z,13.41
2017-10-19T08:28:22.116Z,13.48
2017-10-19T08:29:23.955Z,13.54
2017-10-19T08:30:25.773Z,13.49
2017-10-19T08:31:27.672Z,13.52
2017-10-19T08:32:29.559Z,13.70
2017-10-19T08:33:31.448Z,13.84
2017-10-19T08:34:45.605Z,13.87
2017-10-19T08:35:47.492Z,13.84
2017-10-19T08:36:49.379Z,13.89
2017-10-19T08:37:51.272Z,13.92
2017-10-19T08:38:53.095Z,13.95
2017-10-19T08:39:54.922Z,14.03
2017-10-19T08:40:56.805Z,14.04
2017-10-19T08:41:58.692Z,14.02
2017-10-19T08:43:00.580Z,14.17
2017-10-19T08:44:14.785Z,14.07
2017-10-19T08:45:16.672Z,14.21
2017-10-19T08:46:18.566Z,14.28
2017-10-19T08:47:20.472Z,14.25
2017-10-19T08:48:22.289Z,14.24
2017-10-19T08:49:24.111Z,14.21
2017-10-19T08:50:26.008Z,14.25
2017-10-19T08:51:27.896Z,14.32
2017-10-19T08:52:29.782Z,14.35
2017-10-19T08:53:43.943Z,14.40
2017-10-19T08:54:45.828Z,14.40
2017-10-19T08:55:47.725Z,14.45
2017-10-19T08:56:49.616Z,14.47
2017-10-19T08:57:51.464Z,14.47
2017-10-19T08:58:53.283Z,14.54
2017-10-19T08:59:55.192Z,14.54
2017-10-19T09:00:57.075Z,14.61
2017-10-19T09:01:58.963Z,14.68
2017-10-19T09:03:13.121Z,14.78
2017-10-19T09:04:15.008Z,14.84
2017-10-19T09:05:16.894Z,14.94
2017-10-19T09:06:18.782Z,14.91
2017-10-19T09:07:20.607Z,15.13
2017-10-19T09:08:22.428Z,15.09
2017-10-19T09:09:24.315Z,15.21
2017-10-19T09:10:26.203Z,15.27
2017-10-19T09:11:28.090Z,15.35
2017-10-19T09:12:42.258Z,15.41
2017-10-19T09:13:44.147Z,15.54
2017-10-19T09:14:46.037Z,15.60
2017-10-19T09:15:47.919Z,15.56
2017-10-19T09:16:49.743Z,15.69
2017-10-19T09:17:51.567Z,15.68
2017-10-19T09:18:53.458Z,15.62
2017-10-19T09:19:55.344Z,15.82
2017-10-19T09:20:57.232Z,15.96
2017-10-19T09:22:11.403Z,16.04
2017-10-19T09:23:13.292Z,16.11
2017-10-19T09:24:15.176Z,16.12
2017-10-19T09:25:17.065Z,16.41
2017-10-19T09:26:18.889Z,16.41
2017-10-19T09:27:20.710Z,16.35
2017-10-19T09:28:22.596Z,16.31
2017-10-19T09:29:24.493Z,16.41
2017-10-19T09:30:26.749Z,16.53
2017-10-19T09:31:40.921Z,16.53
2017-10-19T09:32:42.847Z,16.56
2017-10-19T09:33:44.730Z,16.58
2017-10-19T09:34:46.623Z,16.71
2017-10-19T09:35:48.448Z,16.78
2017-10-19T09:36:50.282Z,16.83
2017-10-19T09:37:52.172Z,16.94
2017-10-19T09:38:54.065Z,16.82
2017-10-19T09:39:55.953Z,16.93
2017-10-19T09:41:10.110Z,17.03
2017-10-19T09:42:12.001Z,16.97
2017-10-19T09:43:13.888Z,17.11
2017-10-19T09:44:15.777Z,17.14
2017-10-19T09:45:17.604Z,17.19
2017-10-19T09:46:19.425Z,17.36
2017-10-19T09:47:21.312Z,17.44
2017-10-19T09:48:23.200Z,17.58
2017-10-19T09:49:25.090Z,17.63
2017-10-19T09:50:39.250Z,17.68
2017-10-19T09:51:41.146Z,17.74
2017-10-19T09:52:43.027Z,17.70
2017-10-19T09:53:44.919Z,17.59
2017-10-19T09:54:46.745Z,17.58
2017-10-19T09:55:48.567Z,17.52
2017-10-19T09:56:50.465Z,17.59
2017-10-19T09:57:52.391Z,17.63
2017-10-19T09:58:54.262Z,17.64
2017-10-19T10:00:08.421Z,17.68
2017-10-19T10:01:10.310Z,17.63
2017-10-19T10:02:12.203Z,17.72
2017-10-19T10:03:14.104Z,17.81
2017-10-19T10:04:15.932Z,17.79
2017-10-19T10:05:17.750Z,17.78
2017-10-19T10:06:19.643Z,17.87
2017-10-19T10:07:21.530Z,17.82
2017-10-19T10:08:23.425Z,17.84
2017-10-19T10:09:37.586Z,17.89
2017-10-19T10:10:39.469Z,17.84
2017-10-19T10:11:41.355Z,17.77
2017-10-19T10:12:43.247Z,17.86
2017-10-19T10:13:45.071Z,17.87
2017-10-19T10:14:46.895Z,17.87
2017-10-19T10:15:48.782Z,17.89
2017-10-19T10:16:50.672Z,17.95
2017-10-19T10:17:52.564Z,17.90
2017-10-19T10:19:06.732Z,17.95
2017-10-19T10:20:08.618Z,17.96
2017-10-19T10:21:10.516Z,17.81
2017-10-19T10:22:12.407Z,17.96
2017-10-19T10:23:14.569Z,17.96
2017-10-19T10:24:16.357Z,17.93
2017-10-19T10:25:18.245Z,17.95
2017-10-19T10:26:20.136Z,17.95
2017-10-19T10:27:22.031Z,17.81
2017-10-19T10:28:36.186Z,17.79
2017-10-19T10:29:38.074Z,17.84
2017-10-19T10:30:39.963Z,17.87
2017-10-19T10:31:41.853Z,17.92
2017-10-19T10:32:43.681Z,18.00
2017-10-19T10:33:45.518Z,18.21
2017-10-19T10:34:47.405Z,18.25
2017-10-19T10:35:49.293Z,18.25
2017-10-19T10:36:51.183Z,18.30
2017-10-19T10:38:05.346Z,18.18
2017-10-19T10:39:07.257Z,17.99
2017-10-19T10:40:09.143Z,17.96
2017-10-19T10:41:11.030Z,17.86
2017-10-19T10:42:12.865Z,17.99
2017-10-19T10:43:14.701Z,17.90
2017-10-19T10:44:16.590Z,17.79
2017-10-19T10:45:18.481Z,17.84
2017-10-19T10:46:20.373Z,17.78
2017-10-19T10:47:34.532Z,17.82
2017-10-19T10:48:36.419Z,17.86
2017-10-19T10:49:38.318Z,17.82
2017-10-19T10:50:40.209Z,17.77
2017-10-19T10:51:42.034Z,17.84
2017-10-19T10:52:43.863Z,17.92
2017-10-19T10:53:45.748Z,17.95
2017-10-19T10:54:47.648Z,17.95
2017-10-19T10:55:49.537Z,17.93
2017-10-19T10:57:03.697Z,17.93
2017-10-19T10:58:05.586Z,17.96
2017-10-19T10:59:07.477Z,17.95
2017-10-19T11:00:09.368Z,17.99
2017-10-19T11:01:11.193Z,17.96
2017-10-19T11:02:13.017Z,17.87
2017-10-19T11:03:14.906Z,17.96
2017-10-19T11:04:16.795Z,17.92
2017-10-19T11:05:18.685Z,18.00
2017-10-19T11:06:32.855Z,17.79
2017-10-19T11:07:34.741Z,17.77
2017-10-19T11:08:36.634Z,17.81
2017-10-19T11:09:38.526Z,17.78
2017-10-19T11:10:40.353Z,17.84
2017-10-19T11:11:42.646Z,17.82
2017-10-19T11:12:44.569Z,17.93
2017-10-19T11:13:46.499Z,17.95
2017-10-19T11:14:48.390Z,18.05
2017-10-19T11:16:02.549Z,18.18
2017-10-19T11:17:04.440Z,18.21
2017-10-19T11:18:06.326Z,18.36
2017-10-19T11:19:08.216Z,18.44
2017-10-19T11:20:10.045Z,18.47
2017-10-19T11:21:12.029Z,18.47
2017-10-19T11:22:14.049Z,18.51
2017-10-19T11:23:16.033Z,18.51
2017-10-19T11:24:17.924Z,18.55
2017-10-19T11:25:32.122Z,18.66
2017-10-19T11:26:34.012Z,18.66
2017-10-19T11:27:35.901Z,18.75
2017-10-19T11:28:37.794Z,18.70
2017-10-19T11:29:39.709Z,18.70
2017-10-19T11:30:41.547Z,18.66
2017-10-19T11:31:43.495Z,18.65
2017-10-19T11:32:45.421Z,18.65
2017-10-19T11:33:47.366Z,18.62
2017-10-19T11:35:01.537Z,18.78
2017-10-19T11:36:03.429Z,18.70
2017-10-19T11:37:05.329Z,18.75
2017-10-19T11:38:07.218Z,18.75
2017-10-19T11:39:09.049Z,18.85
2017-10-19T11:40:10.923Z,18.94
2017-10-19T11:41:12.822Z,19.11
2017-10-19T11:42:14.714Z,19.13
2017-10-19T11:43:16.610Z,19.22
2017-10-19T11:44:30.793Z,19.28
2017-10-19T11:45:32.665Z,19.16
2017-10-19T11:46:34.558Z,19.25
2017-10-19T11:47:36.505Z,19.29
2017-10-19T11:48:38.379Z,19.33
2017-10-19T11:49:40.198Z,19.36
2017-10-19T11:50:42.096Z,19.23
2017-10-19T11:51:43.988Z,19.16
2017-10-19T11:52:45.878Z,19.11
2017-10-19T11:54:00.038Z,18.99
2017-10-19T11:55:01.928Z,18.92
2017-10-19T11:56:03.828Z,18.92
2017-10-19T11:57:05.738Z,18.81
2017-10-19T11:58:07.563Z,18.95
2017-10-19T11:59:09.398Z,19.06
2017-10-19T12:00:11.279Z,19.08
2017-10-19T12:01:13.168Z,19.19
2017-10-19T12:02:15.404Z,19.26
2017-10-19T12:03:29.559Z,19.26
2017-10-19T12:04:31.450Z,19.23
2017-10-19T12:05:33.340Z,19.28
2017-10-19T12:06:35.234Z,19.39
2017-10-19T12:07:37.096Z,19.41
2017-10-19T12:08:38.967Z,19.39
2017-10-19T12:09:40.857Z,19.36
2017-10-19T12:10:42.748Z,19.44
2017-10-19T12:11:44.640Z,19.47
2017-10-19T12:12:58.892Z,19.43
2017-10-19T12:14:00.783Z,19.48
2017-10-19T12:15:02.670Z,19.54
2017-10-19T12:16:04.565Z,19.58
2017-10-19T12:17:06.431Z,19.61
2017-10-19T12:18:08.268Z,19.59
2017-10-19T12:19:10.164Z,19.62
2017-10-19T12:20:12.050Z,19.73
2017-10-19T12:21:13.940Z,19.71
2017-10-19T12:22:28.100Z,19.68
2017-10-19T12:23:30.399Z,19.65
2017-10-19T12:24:32.448Z,19.73
2017-10-19T12:25:34.339Z,19.59
2017-10-19T12:26:36.265Z,19.69
2017-10-19T12:27:38.087Z,19.61
2017-10-19T12:28:40.010Z,19.66
2017-10-19T12:29:41.924Z,19.63
2017-10-19T12:30:43.906Z,19.71
2017-10-19T12:31:58.124Z,19.77
2017-10-19T12:33:00.037Z,19.87
2017-10-19T12:34:01.902Z,19.84
2017-10-19T12:35:03.855Z,19.88
2017-10-19T12:36:05.749Z,19.80
2017-10-19T12:37:07.588Z,19.77
2017-10-19T12:38:09.479Z,19.78
2017-10-19T12:39:11.915Z,19.76
2017-10-19T12:40:13.942Z,19.68
2017-10-19T12:41:28.100Z,19.74
2017-10-19T12:42:29.995Z,19.76
2017-10-19T12:43:31.883Z,19.77
2017-10-19T12:44:33.774Z,19.77
2017-10-19T12:45:35.648Z,19.77
2017-10-19T12:46:37.574Z,19.71
2017-10-19T12:47:39.486Z,19.78
2017-10-19T12:48:41.415Z,19.83
2017-10-19T12:49:43.341Z,19.88
2017-10-19T12:50:57.639Z,19.92
2017-10-19T12:51:59.517Z,19.98
2017-10-19T12:53:01.416Z,19.99
2017-10-19T12:54:03.310Z,20.03
2017-10-19T12:55:05.136Z,19.81
2017-10-19T12:56:06.964Z,19.83
2017-10-19T12:57:08.865Z,19.77
2017-10-19T12:58:10.752Z,19.71
2017-10-19T12:59:12.645Z,19.63
2017-10-19T13:00:26.805Z,19.62
2017-10-19T13:01:28.697Z,19.61
2017-10-19T13:02:30.586Z,19.58
2017-10-19T13:03:32.485Z,19.61
2017-10-19T13:04:34.312Z,19.56
2017-10-19T13:05:36.129Z,19.50
2017-10-19T13:06:38.021Z,19.58
2017-10-19T13:07:39.908Z,19.55
2017-10-19T13:08:41.803Z,19.58
2017-10-19T13:09:55.963Z,19.59
2017-10-19T13:10:57.854Z,19.59
2017-10-19T13:11:59.743Z,19.56
2017-10-19T13:13:01.637Z,19.61
2017-10-19T13:14:03.465Z,19.61
2017-10-19T13:15:05.301Z,19.55
2017-10-19T13:16:07.194Z,19.58
2017-10-19T13:17:09.083Z,19.61
2017-10-19T13:18:10.976Z,19.62
2017-10-19T13:19:25.136Z,19.59
2017-10-19T13:20:27.026Z,19.58
2017-10-19T13:21:28.920Z,19.54
2017-10-19T13:22:30.807Z,19.44
2017-10-19T13:23:32.635Z,19.47
2017-10-19T13:24:34.458Z,19.41
2017-10-19T13:25:36.349Z,19.44
2017-10-19T13:26:38.261Z,19.43
2017-10-19T13:27:40.148Z,19.41
2017-10-19T13:28:54.310Z,19.29
2017-10-19T13:29:56.201Z,19.14
2017-10-19T13:30:58.087Z,19.16
2017-10-19T13:31:59.979Z,19.08
2017-10-19T13:33:01.808Z,19.00
2017-10-19T13:34:03.631Z,18.98